Time;durP1;ratioP1;P1;durP2;ratioP2;P2;SDS_P1;SDS_P2;PMS_P1;PMS_P2;Temp;Humidity;BMP_temperature;BMP_pressure;BME280_temperature;BME280_humidity;BME280_pressure;Samples;Min_cycle;Max_cycle;Signal;HPM_P1;HPM_P2
2022/12/24 00:00:11;;;;;;;0.90;0.90;;;;;;;0.30;100.00;98322.75;4929041;29;20147;-85
2022/12/24 00:02:39;;;;;;;0.90;0.90;;;;;;;0.31;100.00;98323.59;4943193;29;20060;-84
2022/12/24 00:05:06;;;;;;;0.90;0.90;;;;;;;0.33;100.00;98325.03;4943055;29;20134;-83
2022/12/24 00:07:33;;;;;;;0.90;0.90;;;;;;;0.32;100.00;98323.38;4944057;29;20051;-83
2022/12/24 00:10:00;;;;;;;0.80;0.80;;;;;;;0.33;100.00;98322.38;4936325;29;20130;-85
2022/12/24 00:12:28;;;;;;;0.80;0.80;;;;;;;0.31;100.00;98318.28;4937110;29;20086;-85
2022/12/24 00:14:55;;;;;;;0.90;0.90;;;;;;;0.33;100.00;98321.53;4936516;29;20450;-84
2022/12/24 00:17:23;;;;;;;0.93;0.93;;;;;;;0.28;100.00;98316.00;4935020;29;20062;-84
2022/12/24 00:19:50;;;;;;;0.90;0.90;;;;;;;0.27;100.00;98317.00;4934947;29;20047;-85
2022/12/24 00:22:16;;;;;;;0.90;0.90;;;;;;;0.30;100.00;98317.44;4917961;29;20054;-84
2022/12/24 00:24:44;;;;;;;0.90;0.90;;;;;;;0.31;100.00;98313.78;4934962;29;20047;-85
2022/12/24 00:27:11;;;;;;;1.00;1.00;;;;;;;0.33;100.00;98319.72;4935102;29;20463;-84
2022/12/24 00:29:39;;;;;;;0.90;0.90;;;;;;;0.33;100.00;98319.72;4934028;29;20111;-85
2022/12/24 00:32:08;;;;;;;0.80;0.80;;;;;;;0.33;100.00;98322.38;4933314;29;20130;-83
2022/12/24 00:34:36;;;;;;;0.90;0.90;;;;;;;0.31;100.00;98316.44;4934959;29;20043;-83
2022/12/24 00:37:05;;;;;;;0.80;0.80;;;;;;;0.34;100.00;98320.53;4935001;29;20387;-85
2022/12/24 00:39:35;;;;;;;0.90;0.90;;;;;;;0.36;100.00;98321.97;4934654;29;20528;-85
2022/12/24 00:42:02;;;;;;;0.80;0.80;;;;;;;0.34;100.00;98325.84;4934286;29;20523;-84
2022/12/24 00:44:29;;;;;;;0.90;0.90;;;;;;;0.30;100.00;98325.41;4934717;29;20047;-85
2022/12/24 00:46:56;;;;;;;0.90;0.90;;;;;;;0.30;100.00;98332.53;4932885;29;20499;-84
2022/12/24 00:49:23;;;;;;;0.90;0.90;;;;;;;0.33;100.00;98327.69;4934793;29;20047;-85
2022/12/24 00:51:50;;;;;;;0.85;0.85;;;;;;;0.33;100.00;98330.34;4950661;29;20051;-85
2022/12/24 00:54:17;;;;;;;1.00;1.00;;;;;;;0.32;100.00;98326.03;4953377;28;20063;-84
2022/12/24 00:56:44;;;;;;;0.85;0.85;;;;;;;0.32;100.00;98326.03;4953082;28;20098;-85
2022/12/24 00:59:11;;;;;;;0.90;0.90;;;;;;;0.33;100.00;98338.31;4953241;29;20079;-84
2022/12/24 01:01:38;;;;;;;0.80;0.80;;;;;;;0.29;100.00;98326.41;4953139;28;20663;-85
2022/12/24 01:06:51;;;;;;;0.90;0.90;;;;;;;0.24;100.00;98328.84;4952983;29;20142;-84
2022/12/24 01:09:18;;;;;;;0.80;0.80;;;;;;;0.30;100.00;98328.03;4953154;29;20054;-84
2022/12/24 01:11:45;;;;;;;0.70;0.70;;;;;;;0.28;100.00;98319.50;4953114;29;20117;-84
2022/12/24 01:14:12;;;;;;;0.90;0.90;;;;;;;0.30;100.00;98322.75;4952522;29;20529;-84
2022/12/24 01:16:39;;;;;;;0.90;0.90;;;;;;;0.34;100.00;98326.66;4954250;28;20486;-85
2022/12/24 01:19:06;;;;;;;0.88;0.88;;;;;;;0.31;100.00;98329.72;4953273;28;20054;-84
2022/12/24 01:21:33;;;;;;;0.80;0.80;;;;;;;0.31;100.00;98328.91;4952726;29;20401;-85
2022/12/24 01:24:00;;;;;;;0.90;0.90;;;;;;;0.32;100.00;98331.34;4951655;29;20047;-84
2022/12/24 01:26:27;;;;;;;0.80;0.80;;;;;;;0.28;100.00;98326.59;4952836;28;20043;-85
2022/12/24 01:28:56;;;;;;;0.80;0.80;;;;;;;0.23;100.00;98321.91;4952687;28;20043;-84
2022/12/24 01:31:23;;;;;;;0.82;0.82;;;;;;;0.26;100.00;98324.16;4957252;29;20055;-84
2022/12/24 01:33:50;;;;;;;1.00;1.00;;;;;;;0.25;100.00;98325.16;4959168;28;20052;-85
2022/12/24 01:36:21;;;;;;;0.90;0.90;;;;;;;0.22;100.00;98321.06;4956715;28;20055;-85
2022/12/24 01:38:48;;;;;;;0.90;0.90;;;;;;;0.21;100.00;98318.63;4951936;29;20055;-86
2022/12/24 01:44:26;;;;;;;0.88;0.88;;;;;;;0.22;100.00;98325.56;4952386;29;20138;-85
2022/12/24 01:47:19;;;;;;;0.80;0.80;;;;;;;0.21;100.00;98329.22;4952265;28;20142;-84
2022/12/24 01:49:55;;;;;;;1.00;1.00;;;;;;;0.16;100.00;98331.66;4951042;29;20581;-86
2022/12/24 01:52:29;;;;;;;0.90;0.90;;;;;;;0.15;100.00;98330.84;4951158;29;20090;-84
2022/12/24 01:55:04;;;;;;;0.90;0.90;;;;;;;0.13;100.00;98326.75;4950764;29;20141;-84
2022/12/24 01:57:37;;;;;;;0.90;0.90;;;;;;;0.15;100.00;98330.84;4951056;29;20489;-84
2022/12/24 02:00:09;;;;;;;0.90;0.90;;;;;;;0.20;100.00;98343.50;4950679;29;20070;-84
2022/12/24 02:02:38;;;;;;;1.00;1.00;;;;;;;0.19;100.00;98324.13;4950833;29;20117;-86
2022/12/24 02:05:11;;;;;;;0.90;0.90;;;;;;;0.21;100.00;98335.34;4950862;29;20486;-85
2022/12/24 02:07:40;;;;;;;0.90;0.90;;;;;;;0.18;100.00;98337.59;4951813;29;20074;-85
2022/12/24 02:10:09;;;;;;;0.98;0.98;;;;;;;0.18;100.00;98334.94;4952397;28;20529;-84
2022/12/24 02:12:37;;;;;;;0.90;0.90;;;;;;;0.18;100.00;98340.25;4952358;28;20083;-85
2022/12/24 02:15:07;;;;;;;0.90;0.90;;;;;;;0.19;100.00;98331.25;4951972;29;20043;-84
2022/12/24 02:17:36;;;;;;;0.90;0.90;;;;;;;0.16;100.00;98337.78;4934878;29;20055;-84
2022/12/24 02:20:32;;;;;;;0.90;0.90;;;;;;;0.19;100.00;98341.88;4950750;29;20055;-84
2022/12/24 02:23:25;;;;;;;0.80;0.80;;;;;;;0.24;100.00;98346.59;4946889;29;20058;-84
2022/12/24 02:26:27;;;;;;;0.90;0.90;;;;;;;0.24;100.00;98339.47;4934911;29;20478;-84
2022/12/24 02:29:17;;;;;;;1.00;1.00;;;;;;;0.25;100.00;98341.09;4951995;29;20061;-83
2022/12/24 02:31:51;;;;;;;0.90;0.90;;;;;;;0.26;100.00;98347.25;4891862;29;20057;-84
2022/12/24 02:34:27;;;;;;;0.80;0.80;;;;;;;0.27;100.00;98344.38;4877115;29;20082;-85
2022/12/24 02:36:57;;;;;;;0.90;0.90;;;;;;;0.29;100.00;98346.84;4876489;29;20076;-84
2022/12/24 02:39:54;;;;;;;0.90;0.90;;;;;;;0.27;100.00;98339.06;4892330;29;20404;-84
2022/12/24 02:42:24;;;;;;;0.80;0.80;;;;;;;0.27;100.00;98338.25;4872483;29;20074;-84
2022/12/24 02:45:03;;;;;;;0.90;0.90;;;;;;;0.28;100.00;98331.91;4877262;29;20108;-85
2022/12/24 02:47:30;;;;;;;0.90;0.90;;;;;;;0.24;100.00;98320.06;4876617;29;20060;-85
2022/12/24 02:50:01;;;;;;;0.90;0.90;;;;;;;0.31;100.00;98334.19;4861433;29;20067;-85
2022/12/24 02:52:37;;;;;;;0.90;0.90;;;;;;;0.31;100.00;98342.97;4876965;29;20052;-85
2022/12/24 02:55:15;;;;;;;0.88;0.88;;;;;;;0.31;100.00;98328.91;4876643;29;20068;-84
2022/12/24 02:58:04;;;;;;;0.90;0.90;;;;;;;0.32;100.00;98320.72;4892166;29;20051;-84
2022/12/24 03:00:57;;;;;;;0.90;0.90;;;;;;;0.30;100.00;98321.94;4861115;29;20159;-86
2022/12/24 03:03:35;;;;;;;0.90;0.90;;;;;;;0.27;100.00;98312.53;4876783;29;20104;-85
2022/12/24 03:06:43;;;;;;;0.90;0.90;;;;;;;0.29;100.00;98336.22;4876260;29;20658;-86
2022/12/24 03:09:13;;;;;;;0.90;0.90;;;;;;;0.27;100.00;98344.38;4922298;29;20055;-86
2022/12/24 03:11:47;;;;;;;0.80;0.80;;;;;;;0.28;100.00;98340.72;4950185;29;20047;-84
2022/12/24 03:14:15;;;;;;;0.90;0.90;;;;;;;0.27;100.00;98349.69;4950335;29;20446;-85
2022/12/24 03:16:43;;;;;;;0.90;0.90;;;;;;;0.22;100.00;98344.94;4951230;28;20047;-85
2022/12/24 03:19:10;;;;;;;0.90;0.90;;;;;;;0.20;100.00;98346.16;4951279;28;20047;-84
2022/12/24 03:21:38;;;;;;;0.90;0.90;;;;;;;0.21;100.00;98339.84;4951430;28;20063;-83
2022/12/24 03:24:06;;;;;;;0.90;0.90;;;;;;;0.16;100.00;98345.72;4949835;29;20055;-85
2022/12/24 03:26:33;;;;;;;0.90;0.90;;;;;;;0.14;100.00;98353.06;4951388;28;20118;-85
2022/12/24 03:29:04;;;;;;;0.90;0.90;;;;;;;0.14;100.00;98342.44;4949857;29;20047;-84
2022/12/24 03:31:46;;;;;;;0.80;0.80;;;;;;;0.15;100.00;98335.31;4951178;28;20059;-84
2022/12/24 03:34:14;;;;;;;1.00;1.00;;;;;;;0.13;100.00;98327.56;4951275;28;20131;-84
2022/12/24 03:36:47;;;;;;;0.80;0.80;;;;;;;0.11;100.00;98324.28;4951224;28;20075;-83
2022/12/24 03:39:14;;;;;;;0.90;0.90;;;;;;;0.12;100.00;98328.56;4951284;28;20054;-83
2022/12/24 03:41:41;;;;;;;0.90;0.90;;;;;;;0.12;100.00;98333.84;4951174;29;20055;-83
2022/12/24 03:44:08;;;;;;;0.98;0.98;;;;;;;0.14;100.00;98339.78;4950859;28;20161;-83
2022/12/24 03:46:35;;;;;;;0.70;0.70;;;;;;;0.18;100.00;98341.06;4951057;28;20071;-84
2022/12/24 03:49:02;;;;;;;1.00;1.00;;;;;;;0.18;100.00;98332.28;4949867;29;20055;-85
2022/12/24 03:51:29;;;;;;;0.90;0.90;;;;;;;0.16;100.00;98334.31;4951023;28;20051;-84
2022/12/24 03:53:56;;;;;;;0.90;0.90;;;;;;;0.16;100.00;98331.66;4949674;29;20052;-83
2022/12/24 03:56:24;;;;;;;0.85;0.85;;;;;;;0.16;100.00;98334.31;4951073;28;20051;-82
2022/12/24 03:58:52;;;;;;;0.90;0.90;;;;;;;0.15;100.00;98341.44;4953292;28;20058;-84
2022/12/24 04:01:19;;;;;;;0.90;0.90;;;;;;;0.13;100.00;98337.34;4954816;28;20055;-84
2022/12/24 04:03:46;;;;;;;0.90;0.90;;;;;;;0.13;100.00;98342.66;4954137;29;20055;-84
2022/12/24 04:06:16;;;;;;;0.90;0.90;;;;;;;0.12;100.00;98333.84;4954251;28;20047;-84
2022/12/24 04:08:44;;;;;;;0.80;0.80;;;;;;;0.10;100.00;98327.09;4953129;29;20154;-84
2022/12/24 04:11:13;;;;;;;1.00;1.00;;;;;;;0.13;100.00;98321.44;4954003;28;20048;-84
2022/12/24 04:13:41;;;;;;;0.80;0.80;;;;;;;0.13;100.00;98324.09;4954420;28;20043;-84
2022/12/24 04:16:11;;;;;;;0.90;0.90;;;;;;;0.13;100.00;98319.59;4955840;29;20055;-84
2022/12/24 04:18:40;;;;;;;0.90;0.90;;;;;;;0.13;100.00;98326.75;4963474;28;20050;-83
2022/12/24 04:21:07;;;;;;;1.00;1.00;;;;;;;0.12;100.00;98319.78;4954777;28;20043;-83
2022/12/24 04:23:36;;;;;;;0.98;0.98;;;;;;;0.11;100.00;98318.16;4954897;28;20067;-85
2022/12/24 04:26:05;;;;;;;1.00;1.00;;;;;;;0.12;100.00;98309.97;4952852;29;20442;-82
2022/12/24 04:28:32;;;;;;;0.90;0.90;;;;;;;0.15;100.00;98308.75;4953002;29;20058;-83
2022/12/24 04:31:03;;;;;;;0.80;0.80;;;;;;;0.13;100.00;98308.97;4953489;29;20150;-83
2022/12/24 04:33:30;;;;;;;0.93;0.93;;;;;;;0.17;100.00;98312.88;4952612;29;20051;-84
2022/12/24 04:35:59;;;;;;;0.90;0.90;;;;;;;0.16;100.00;98305.13;4954153;29;20400;-85
2022/12/24 04:38:26;;;;;;;0.90;0.90;;;;;;;0.15;100.00;98314.91;4954586;28;20048;-84
2022/12/24 04:40:59;;;;;;;0.90;0.90;;;;;;;0.11;100.00;98313.66;4953935;28;20055;-85
2022/12/24 04:43:27;;;;;;;0.90;0.90;;;;;;;0.14;100.00;98312.44;4933984;29;20055;-85
2022/12/24 04:45:54;;;;;;;0.80;0.80;;;;;;;0.12;100.00;98317.13;4938806;29;20051;-84
2022/12/24 04:48:21;;;;;;;0.80;0.80;;;;;;;0.12;100.00;98315.28;4943226;29;20063;-83
2022/12/24 04:50:48;;;;;;;0.90;0.90;;;;;;;0.11;100.00;98318.97;4934060;29;20051;-83
2022/12/24 04:53:15;;;;;;;0.80;0.80;;;;;;;0.13;100.00;98305.50;4938273;29;20058;-84
2022/12/24 04:55:44;;;;;;;0.80;0.80;;;;;;;0.12;100.00;98299.38;4938542;29;20184;-85
2022/12/24 04:58:12;;;;;;;0.90;0.90;;;;;;;0.14;100.00;98291.22;4938935;28;20043;-84
2022/12/24 05:00:40;;;;;;;0.80;0.80;;;;;;;0.16;100.00;98292.66;4946917;29;20051;-84
2022/12/24 05:03:07;;;;;;;1.00;1.00;;;;;;;0.14;100.00;98297.34;4940901;29;20407;-84
2022/12/24 05:05:34;;;;;;;0.90;0.90;;;;;;;0.11;100.00;98299.56;4949179;29;20455;-87
2022/12/24 05:08:04;;;;;;;0.90;0.90;;;;;;;0.13;100.00;98292.25;4929276;29;20048;-84
2022/12/24 05:10:31;;;;;;;0.90;0.90;;;;;;;0.13;100.00;98294.91;4940932;29;20134;-84
2022/12/24 05:12:59;;;;;;;0.90;0.90;;;;;;;0.12;100.00;98299.38;4950091;29;20581;-86
2022/12/24 05:15:26;;;;;;;0.90;0.90;;;;;;;0.11;100.00;98291.63;4603937;28;9999840;-86
2022/12/24 05:17:53;;;;;;;1.00;1.00;;;;;;;0.09;100.00;98283.03;4945505;29;20074;-85
2022/12/24 05:20:20;;;;;;;0.90;0.90;;;;;;;0.07;100.00;98293.00;4938145;29;20051;-82
2022/12/24 05:28:23;;;;;;;0.82;0.82;;;;;;;0.06;100.00;98283.41;4930967;29;20055;-82
2022/12/24 05:30:50;;;;;;;0.90;0.90;;;;;;;0.08;100.00;98289.34;4936140;29;20177;-83
2022/12/24 05:33:18;;;;;;;0.90;0.90;;;;;;;0.06;100.00;98286.06;4940024;29;20399;-85
2022/12/24 05:35:44;;;;;;;0.90;0.90;;;;;;;0.08;100.00;98287.50;4941657;29;20058;-86
2022/12/24 05:38:11;;;;;;;0.85;0.85;;;;;;;0.07;100.00;98291.16;4943105;29;20052;-88
2022/12/24 05:40:38;;;;;;;0.90;0.90;;;;;;;0.05;100.00;98287.91;4936200;29;20722;-86
2022/12/24 05:43:05;;;;;;;0.80;0.80;;;;;;;0.07;100.00;98274.44;4929400;29;20082;-83
2022/12/24 05:45:32;;;;;;;0.90;0.90;;;;;;;0.06;100.00;98294.03;4933196;29;20550;-86
2022/12/24 05:47:59;;;;;;;0.82;0.82;;;;;;;0.00;100.00;98277.06;4933890;29;20079;-88
2022/12/24 05:50:26;;;;;;;0.90;0.90;;;;;;;0.02;100.00;98276.84;4937542;29;20071;-87
2022/12/24 05:53:04;;;;;;;0.90;0.90;;;;;;;0.02;100.00;98277.66;4943255;29;20757;-87
2022/12/24 05:55:31;;;;;;;0.90;0.90;;;;;;;0.05;100.00;98282.59;4946795;29;20055;-87
2022/12/24 05:57:58;;;;;;;0.95;0.95;;;;;;;0.09;100.00;98288.31;4956920;28;20050;-86
2022/12/24 06:00:25;;;;;;;0.90;0.90;;;;;;;0.06;100.00;98278.94;4951670;29;20062;-88
2022/12/24 06:02:52;;;;;;;0.90;0.90;;;;;;;0.07;100.00;98266.47;4961690;29;20047;-88
2022/12/24 06:05:19;;;;;;;0.90;0.90;;;;;;;0.03;100.00;98271.38;4970294;29;20110;-89
2022/12/24 06:07:46;;;;;;;0.90;0.90;;;;;;;0.03;100.00;98278.50;4957821;29;20059;-87
2022/12/24 06:10:14;;;;;;;0.90;0.90;;;;;;;0.05;100.00;98273.81;4955208;29;20056;-87
2022/12/24 06:12:41;;;;;;;0.90;0.90;;;;;;;0.06;100.00;98273.63;4956221;29;20061;-85
2022/12/24 06:15:08;;;;;;;0.82;0.82;;;;;;;0.05;100.00;98279.94;4951778;29;20430;-87
2022/12/24 06:17:35;;;;;;;0.93;0.93;;;;;;;0.04;100.00;98280.13;4943222;29;20048;-85
2022/12/24 06:20:03;;;;;;;0.90;0.90;;;;;;;0.02;100.00;98287.47;4936747;29;20484;-86
2022/12/24 06:22:30;;;;;;;1.00;1.00;;;;;;;0.04;100.00;98280.13;4923669;29;20056;-88
2022/12/24 06:24:59;;;;;;;0.90;0.90;;;;;;;0.06;100.00;98280.75;4924503;29;20510;-88
2022/12/24 06:27:26;;;;;;;0.93;0.93;;;;;;;0.08;100.00;98289.34;4953941;29;20063;-90
2022/12/24 06:29:53;;;;;;;1.00;1.00;;;;;;;0.10;100.00;98284.66;4955277;28;20115;-88
2022/12/24 06:32:20;;;;;;;0.90;0.90;;;;;;;0.06;100.00;98284.22;4949020;28;20170;-87
2022/12/24 06:34:47;;;;;;;1.00;1.00;;;;;;;0.05;100.00;98279.94;4939592;29;20054;-86
2022/12/24 06:37:17;;;;;;;0.80;0.80;;;;;;;0.02;100.00;98287.47;4948187;28;20051;-86
2022/12/24 06:39:45;;;;;;;1.00;1.00;;;;;;;-0.04;100.00;98268.66;4940361;28;20043;-86
2022/12/24 06:42:13;;;;;;;1.00;1.00;;;;;;;-0.03;100.00;98286.19;4932016;29;20070;-86
2022/12/24 06:44:40;;;;;;;0.82;0.82;;;;;;;0.00;100.00;98274.41;4936791;29;20059;-86
2022/12/24 06:47:07;;;;;;;0.90;0.90;;;;;;;0.02;100.00;98276.84;4936857;28;20052;-86
2022/12/24 06:49:34;;;;;;;0.85;0.85;;;;;;;0.06;100.00;98278.94;4937983;29;20138;-92
2022/12/24 06:52:01;;;;;;;0.90;0.90;;;;;;;0.09;100.00;98261.78;4942069;29;20066;-88
2022/12/24 06:54:27;;;;;;;0.90;0.90;;;;;;;0.05;100.00;98271.16;4943013;29;20106;-86
2022/12/24 06:56:55;;;;;;;0.70;0.70;;;;;;;0.03;100.00;98274.00;4932522;29;20043;-88
2022/12/24 06:59:23;;;;;;;0.90;0.90;;;;;;;0.05;100.00;98279.09;4936348;29;20056;-88
2022/12/24 07:01:50;;;;;;;0.88;0.88;;;;;;;0.05;100.00;98277.31;4935597;29;20047;-87
2022/12/24 07:04:18;;;;;;;0.90;0.90;;;;;;;0.06;100.00;98278.94;4940981;29;20083;-86
2022/12/24 07:06:46;;;;;;;0.90;0.90;;;;;;;0.08;100.00;98284.88;4933972;29;20055;-88
2022/12/24 07:09:13;;;;;;;0.80;0.80;;;;;;;0.09;100.00;98277.72;4941061;29;20451;-87
2022/12/24 07:11:40;;;;;;;0.82;0.82;;;;;;;0.13;100.00;98271.00;4938031;29;20057;-87
2022/12/24 07:14:07;;;;;;;0.85;0.85;;;;;;;0.11;100.00;98286.31;4946766;29;20059;-86
2022/12/24 07:16:35;;;;;;;0.90;0.90;;;;;;;0.09;100.00;98277.72;4932908;29;20086;-86
2022/12/24 07:19:02;;;;;;;0.80;0.80;;;;;;;0.10;100.00;98276.69;4937463;29;20052;-87
2022/12/24 07:21:29;;;;;;;1.00;1.00;;;;;;;0.15;100.00;98274.28;4947830;28;20059;-86
2022/12/24 07:23:56;;;;;;;1.00;1.00;;;;;;;0.15;100.00;98276.91;4949008;29;20576;-86
2022/12/24 07:26:23;;;;;;;0.90;0.90;;;;;;;0.11;100.00;98265.88;4944791;28;20059;-87
2022/12/24 07:28:50;;;;;;;0.90;0.90;;;;;;;0.14;100.00;98284.06;4940590;29;20047;-85
2022/12/24 07:31:17;;;;;;;0.90;0.90;;;;;;;0.15;100.00;98287.53;4941820;28;20118;-84
2022/12/24 07:33:45;;;;;;;0.70;0.70;;;;;;;0.15;100.00;98292.84;4941451;28;20056;-84
2022/12/24 07:36:19;;;;;;;0.90;0.90;;;;;;;0.19;100.00;98284.31;4946726;29;21117;-87
2022/12/24 07:38:46;;;;;;;0.90;0.90;;;;;;;0.20;100.00;98280.66;4939015;29;20078;-88
2022/12/24 07:41:13;;;;;;;0.80;0.80;;;;;;;0.21;100.00;98294.75;4942496;29;20044;-88
2022/12/24 07:43:40;;;;;;;0.80;0.80;;;;;;;0.21;100.00;98287.59;4941457;29;20107;-86
2022/12/24 07:46:07;;;;;;;0.80;0.80;;;;;;;0.23;100.00;98287.41;4919073;29;20134;-87
2022/12/24 07:48:35;;;;;;;0.90;0.90;;;;;;;0.20;100.00;98287.78;4944829;29;20055;-85
2022/12/24 07:51:02;;;;;;;0.90;0.90;;;;;;;0.19;100.00;98284.31;4946387;29;20055;-89
2022/12/24 07:53:29;;;;;;;0.77;0.77;;;;;;;0.19;100.00;98294.09;4949633;29;20533;-88
2022/12/24 07:55:57;;;;;;;0.80;0.80;;;;;;;0.21;100.00;98281.47;4953168;28;20543;-87
2022/12/24 07:58:25;;;;;;;0.90;0.90;;;;;;;0.22;100.00;98288.41;4939301;29;20439;-88
2022/12/24 08:00:59;;;;;;;1.00;1.00;;;;;;;0.22;100.00;98281.25;4954820;29;20070;-88
2022/12/24 08:03:27;;;;;;;1.00;1.00;;;;;;;0.19;100.00;98283.50;4960851;29;20067;-84
2022/12/24 08:05:54;;;;;;;0.90;0.90;;;;;;;0.21;100.00;98290.25;4956388;29;20392;-87
2022/12/24 08:08:21;;;;;;;0.80;0.80;;;;;;;0.20;100.00;98279.81;4955851;29;20058;-87
2022/12/24 08:10:49;;;;;;;0.90;0.90;;;;;;;0.22;100.00;98283.09;4959072;28;20043;-89
2022/12/24 08:13:16;;;;;;;0.90;0.90;;;;;;;0.18;100.00;98287.97;4966121;29;20055;-88
2022/12/24 08:15:50;;;;;;;1.00;1.00;;;;;;;0.19;100.00;98280.84;4952405;29;20052;-86
2022/12/24 08:18:17;;;;;;;0.80;0.80;;;;;;;0.19;100.00;98283.50;4935800;29;20051;-84
2022/12/24 08:20:44;;;;;;;0.90;0.90;;;;;;;0.17;100.00;98291.63;4938261;29;20084;-83
2022/12/24 08:23:12;;;;;;;0.90;0.90;;;;;;;0.16;100.00;98290.00;4935834;29;20047;-83
2022/12/24 08:25:46;;;;;;;0.88;0.88;;;;;;;0.15;100.00;98293.69;4934610;29;20459;-84
2022/12/24 08:28:16;;;;;;;0.90;0.90;;;;;;;0.16;100.00;98281.22;4935452;29;20051;-81
2022/12/24 08:30:43;;;;;;;0.90;0.90;;;;;;;0.17;100.00;98286.31;4935724;29;20103;-82
2022/12/24 08:33:11;;;;;;;0.90;0.90;;;;;;;0.14;100.00;98283.25;4935605;29;20082;-83
2022/12/24 08:35:38;;;;;;;0.82;0.82;;;;;;;0.14;100.00;98277.94;4934464;29;20048;-83
2022/12/24 08:38:05;;;;;;;0.90;0.90;;;;;;;0.10;100.00;98272.22;4933811;29;20522;-83
2022/12/24 08:40:32;;;;;;;0.80;0.80;;;;;;;0.15;100.00;98282.22;4935365;29;20056;-83
2022/12/24 08:43:00;;;;;;;0.90;0.90;;;;;;;0.18;100.00;98276.56;4935272;29;20051;-84
2022/12/24 08:45:27;;;;;;;0.90;0.90;;;;;;;0.14;100.00;98267.34;4934794;29;20742;-84
2022/12/24 08:48:00;;;;;;;0.90;0.90;;;;;;;0.18;100.00;98281.88;4934576;29;20058;-84
2022/12/24 08:50:27;;;;;;;0.90;0.90;;;;;;;0.17;100.00;98274.91;4935009;29;20051;-85
2022/12/24 08:52:54;;;;;;;0.90;0.90;;;;;;;0.14;100.00;98259.38;4934791;29;20386;-83
2022/12/24 08:55:21;;;;;;;0.90;0.90;;;;;;;0.16;100.00;98252.03;4933666;29;20096;-83
2022/12/24 08:57:48;;;;;;;0.80;0.80;;;;;;;0.15;100.00;98255.69;4934781;29;20055;-83
2022/12/24 09:00:16;;;;;;;0.80;0.80;;;;;;;0.12;100.00;98254.25;4935939;29;20051;-87
2022/12/24 09:02:43;;;;;;;0.90;0.90;;;;;;;0.08;100.00;98254.88;4935108;29;20503;-83
2022/12/24 09:05:10;;;;;;;0.90;0.90;;;;;;;0.06;100.00;98252.41;4934830;29;20213;-84
2022/12/24 09:07:37;;;;;;;0.90;0.90;;;;;;;0.06;100.00;98251.56;4933151;29;20055;-84
2022/12/24 09:10:05;;;;;;;0.82;0.82;;;;;;;0.08;100.00;98250.38;4933014;29;20048;-85
2022/12/24 09:12:32;;;;;;;0.90;0.90;;;;;;;0.03;100.00;98246.66;4936041;29;20047;-85
2022/12/24 09:14:59;;;;;;;0.85;0.85;;;;;;;0.07;100.00;98253.22;4940379;29;20063;-84
2022/12/24 09:17:30;;;;;;;0.90;0.90;;;;;;;0.07;100.00;98254.03;4930036;29;20051;-86
2022/12/24 09:19:57;;;;;;;0.90;0.90;;;;;;;0.07;100.00;98251.38;4931951;29;20079;-84
2022/12/24 09:22:24;;;;;;;0.80;0.80;;;;;;;0.07;100.00;98253.22;4933570;29;20048;-84
2022/12/24 09:24:54;;;;;;;0.80;0.80;;;;;;;0.05;100.00;98249.91;4931674;29;20064;-84
2022/12/24 09:27:22;;;;;;;0.80;0.80;;;;;;;0.05;100.00;98248.13;4932400;29;20054;-84
2022/12/24 09:29:49;;;;;;;0.90;0.90;;;;;;;0.04;100.00;98246.47;4930455;29;20736;-83
2022/12/24 09:32:16;;;;;;;1.00;1.00;;;;;;;0.08;100.00;98250.38;4930607;29;20063;-83
2022/12/24 09:34:43;;;;;;;0.90;0.90;;;;;;;0.07;100.00;98255.84;4931643;29;20126;-81
2022/12/24 09:37:10;;;;;;;0.80;0.80;;;;;;;0.02;100.00;98245.81;4930368;29;20047;-81
2022/12/24 09:39:37;;;;;;;0.90;0.90;;;;;;;0.04;100.00;98243.00;4930810;29;20698;-84
2022/12/24 09:42:25;;;;;;;0.90;0.90;;;;;;;0.03;100.00;98246.66;4929771;29;20055;-85
2022/12/24 09:45:17;;;;;;;0.85;0.85;;;;;;;-0.01;100.00;98243.56;4928833;29;20590;-85
2022/12/24 09:47:51;;;;;;;0.90;0.90;;;;;;;-0.03;100.00;98242.94;4592651;28;10000074;-84
2022/12/24 09:50:39;;;;;;;0.90;0.90;;;;;;;-0.02;100.00;98234.81;4948624;29;20422;-84
2022/12/24 09:53:18;;;;;;;0.77;0.77;;;;;;;-0.04;100.00;98226.22;4950838;29;20639;-85
2022/12/24 09:55:50;;;;;;;0.90;0.90;;;;;;;-0.07;100.00;98229.25;4950355;28;20063;-83
2022/12/24 09:58:29;;;;;;;0.90;0.90;;;;;;;-0.03;100.00;98233.16;4951138;29;20077;-83
2022/12/24 10:00:56;;;;;;;0.82;0.82;;;;;;;-0.04;100.00;98231.53;4949548;29;20804;-84
2022/12/24 10:03:23;;;;;;;0.90;0.90;;;;;;;-0.08;100.00;98237.41;4949609;29;20043;-84
2022/12/24 10:05:59;;;;;;;0.80;0.80;;;;;;;-0.13;100.00;98230.03;4948973;28;20058;-83
2022/12/24 10:08:56;;;;;;;0.80;0.80;;;;;;;-0.07;100.00;98229.25;4947840;29;20050;-85
2022/12/24 10:11:54;;;;;;;0.80;0.80;;;;;;;-0.06;100.00;98230.88;4931775;29;20199;-83
2022/12/24 10:14:30;;;;;;;0.90;0.90;;;;;;;-0.09;100.00;98228.63;4948898;28;20407;-83
2022/12/24 10:17:28;;;;;;;0.85;0.85;;;;;;;-0.05;100.00;98227.25;4946934;29;20163;-83
2022/12/24 10:20:19;;;;;;;0.80;0.80;;;;;;;-0.06;100.00;98235.38;4949566;29;20863;-84
2022/12/24 10:23:06;;;;;;;0.80;0.80;;;;;;;-0.04;100.00;98236.81;4952236;29;20070;-85
2022/12/24 10:26:12;;;;;;;0.90;0.90;;;;;;;-0.06;100.00;98233.53;4954613;29;20047;-87
2022/12/24 10:29:00;;;;;;;0.90;0.90;;;;;;;-0.08;100.00;98234.75;4943588;29;20056;-83
2022/12/24 10:31:34;;;;;;;0.90;0.90;;;;;;;-0.12;100.00;98234.34;4937790;29;20498;-84
2022/12/24 10:34:06;;;;;;;0.90;0.90;;;;;;;-0.15;100.00;98236.53;4934783;29;20059;-86
2022/12/24 10:36:33;;;;;;;0.90;0.90;;;;;;;-0.17;100.00;98239.41;4928163;29;20048;-86
2022/12/24 10:39:00;;;;;;;0.90;0.90;;;;;;;-0.20;100.00;98238.94;4924974;29;20112;-86
2022/12/24 10:41:31;;;;;;;0.90;0.90;;;;;;;-0.19;100.00;98228.16;4931476;29;20450;-84
2022/12/24 10:43:59;;;;;;;0.90;0.90;;;;;;;-0.08;100.00;98240.88;4928334;29;20479;-86
2022/12/24 10:46:37;;;;;;;0.90;0.90;;;;;;;-0.09;100.00;98231.28;4928665;29;20068;-86
2022/12/24 10:49:07;;;;;;;1.00;1.00;;;;;;;-0.06;100.00;98233.53;4928431;29;20147;-85
2022/12/24 10:51:54;;;;;;;0.90;0.90;;;;;;;-0.02;100.00;98232.16;4929608;29;20522;-87
2022/12/24 10:54:24;;;;;;;0.90;0.90;;;;;;;-0.04;100.00;98233.34;4932030;29;20054;-85
2022/12/24 10:57:01;;;;;;;0.90;0.90;;;;;;;-0.04;100.00;98236.81;4931901;29;20052;-84
2022/12/24 10:59:29;;;;;;;;;;;;;;;-0.02;100.00;98237.44;4934302;29;20059;-85
2022/12/24 11:01:57;;;;;;;0.90;0.90;;;;;;;0.02;100.00;98242.38;4934247;29;20388;-85
2022/12/24 11:04:28;;;;;;;0.90;0.90;;;;;;;0.01;100.00;98246.03;4933186;29;20111;-85
2022/12/24 11:07:03;;;;;;;0.90;0.90;;;;;;;0.05;100.00;98244.63;4932680;29;20079;-84
2022/12/24 11:09:40;;;;;;;0.80;0.80;;;;;;;0.06;100.00;98252.41;4939938;29;20079;-85
2022/12/24 11:12:18;;;;;;;0.80;0.80;;;;;;;0.05;100.00;98250.78;4931701;29;20118;-85
2022/12/24 11:14:45;;;;;;;0.90;0.90;;;;;;;0.08;100.00;98254.88;4932103;29;20059;-86
2022/12/24 11:17:22;;;;;;;0.90;0.90;;;;;;;0.10;100.00;98258.13;4944430;29;20052;-85
2022/12/24 11:19:49;;;;;;;0.90;0.90;;;;;;;0.07;100.00;98259.31;4925196;29;20047;-85
2022/12/24 11:22:30;;;;;;;0.90;0.90;;;;;;;0.09;100.00;98254.66;4937950;29;20090;-87
2022/12/24 11:25:05;;;;;;;0.90;0.90;;;;;;;0.03;100.00;98254.63;4935873;29;20547;-87
2022/12/24 11:27:46;;;;;;;1.00;1.00;;;;;;;0.03;100.00;98257.28;4923078;29;20142;-88
2022/12/24 11:30:14;;;;;;;0.90;0.90;;;;;;;0.04;100.00;98266.88;4940830;29;20175;-88
2022/12/24 11:32:42;;;;;;;0.98;0.98;;;;;;;0.06;100.00;98267.50;4940294;29;20048;-88
2022/12/24 11:35:21;;;;;;;0.90;0.90;;;;;;;0.07;100.00;98258.50;4914784;29;20087;-90
2022/12/24 11:38:07;;;;;;;0.90;0.90;;;;;;;0.08;100.00;98284.06;4933766;29;20142;-89
2022/12/24 11:40:36;;;;;;;0.90;0.90;;;;;;;0.06;100.00;98262.19;4937485;29;20143;-90
2022/12/24 11:43:04;;;;;;;1.00;1.00;;;;;;;0.08;100.00;98276.09;4923594;29;20055;-88
2022/12/24 11:45:50;;;;;;;0.80;0.80;;;;;;;0.10;100.00;98274.88;4927613;29;20090;-87
2022/12/24 11:48:33;;;;;;;0.90;0.90;;;;;;;0.11;100.00;98288.97;4938582;29;20055;-85
2022/12/24 11:51:09;;;;;;;0.90;0.90;;;;;;;0.11;100.00;98286.31;4946496;29;20522;-85
2022/12/24 11:53:46;;;;;;;0.90;0.90;;;;;;;0.11;100.00;98294.25;4943159;29;20533;-85
2022/12/24 11:56:40;;;;;;;1.00;1.00;;;;;;;0.11;100.00;98287.13;4938735;29;20973;-86
2022/12/24 11:59:14;;;;;;;0.95;0.95;;;;;;;0.08;100.00;98292.00;4934599;29;20181;-84